createdAt,value
2023-05-12T00:00:58.736Z,69.18
2023-05-12T00:03:27.335Z,70.48
2023-05-12T00:05:55.626Z,71.08
2023-05-12T00:08:23.833Z,71.57
2023-05-12T00:10:53.470Z,70.92
2023-05-12T00:13:23.692Z,71.19
2023-05-12T00:15:52.670Z,71.21
2023-05-12T00:18:21.019Z,72.08
2023-05-12T00:20:49.330Z,71.35
2023-05-12T00:23:17.500Z,71.26
2023-05-12T00:25:45.830Z,70.53
2023-05-12T00:28:15.366Z,71.35
2023-05-12T00:30:43.580Z,72.10
2023-05-12T00:33:11.775Z,73.11
2023-05-12T00:35:39.959Z,72.98
2023-05-12T00:38:08.231Z,72.93
2023-05-12T00:40:36.455Z,72.73
2023-05-12T00:43:04.631Z,73.92
2023-05-12T00:45:34.693Z,73.90
2023-05-12T00:48:03.549Z,74.07
2023-05-12T00:50:32.313Z,74.40
2023-05-12T00:53:02.306Z,75.60
2023-05-12T00:55:31.035Z,75.47
2023-05-12T00:58:00.417Z,76.04
2023-05-12T01:00:29.568Z,76.88
2023-05-12T01:02:59.520Z,76.73
2023-05-12T01:05:37.552Z,77.62
2023-05-12T01:08:07.221Z,77.64
2023-05-12T01:10:36.124Z,78.25
2023-05-12T01:13:04.371Z,78.53
2023-05-12T01:15:34.246Z,79.05
2023-05-12T01:18:06.660Z,79.88
2023-05-12T01:20:36.366Z,80.04
2023-05-12T01:23:06.434Z,80.18
2023-05-12T01:25:35.356Z,80.04
2023-05-12T01:28:06.826Z,80.11
2023-05-12T01:30:39.068Z,80.19
2023-05-12T01:33:07.438Z,80.35
2023-05-12T01:35:35.646Z,81.47
2023-05-12T01:38:04.291Z,82.25
2023-05-12T01:40:35.395Z,82.55
2023-05-12T01:43:05.570Z,82.55
2023-05-12T01:45:34.901Z,82.87
2023-05-12T01:48:03.188Z,83.05
2023-05-12T01:50:31.663Z,83.10
2023-05-12T01:53:00.527Z,83.29
2023-05-12T01:55:29.254Z,83.59
2023-05-12T01:57:58.930Z,83.61
2023-05-12T02:00:30.457Z,83.68
2023-05-12T02:03:00.058Z,84.20
2023-05-12T02:05:28.339Z,84.52
2023-05-12T02:07:56.512Z,85.15
2023-05-12T02:10:24.709Z,84.97
2023-05-12T02:12:52.868Z,84.81
2023-05-12T02:15:21.135Z,84.64
2023-05-12T02:17:53.942Z,84.88
2023-05-12T02:20:22.907Z,85.43
2023-05-12T02:22:51.176Z,85.72
2023-05-12T02:25:19.365Z,85.75
2023-05-12T02:27:48.411Z,85.66
2023-05-12T02:30:18.845Z,86.19
2023-05-12T02:32:47.784Z,86.38
2023-05-12T02:35:17.362Z,86.81
2023-05-12T02:37:45.770Z,87.17
2023-05-12T02:40:16.053Z,87.64
2023-05-12T02:42:45.548Z,88.13
2023-05-12T02:45:14.142Z,88.62
2023-05-12T02:47:42.373Z,89.16
2023-05-12T02:50:11.391Z,89.25
2023-05-12T02:52:41.003Z,88.72
2023-05-12T02:55:10.018Z,88.84
2023-05-12T02:57:38.295Z,88.68
2023-05-12T03:00:07.849Z,88.60
2023-05-12T03:02:40.521Z,88.54
2023-05-12T03:05:10.123Z,88.57
2023-05-12T03:07:38.632Z,87.54
2023-05-12T03:10:09.945Z,86.63
2023-05-12T03:12:38.280Z,86.71
2023-05-12T03:15:07.802Z,86.46
2023-05-12T03:17:36.165Z,85.89
2023-05-12T03:20:05.181Z,85.16
2023-05-12T03:22:33.419Z,84.53
2023-05-12T03:25:01.764Z,83.94
2023-05-12T03:27:31.709Z,83.87
2023-05-12T03:30:01.601Z,83.72
2023-05-12T03:32:31.034Z,83.65
2023-05-12T03:34:59.266Z,83.46
2023-05-12T03:37:27.436Z,83.81
2023-05-12T03:39:56.136Z,83.78
2023-05-12T03:42:24.875Z,83.54
2023-05-12T03:44:54.428Z,84.09
2023-05-12T03:47:22.821Z,84.53
2023-05-12T03:49:51.103Z,83.28
2023-05-12T03:52:19.648Z,82.41
2023-05-12T03:54:47.841Z,81.67
2023-05-12T03:57:15.976Z,81.17
2023-05-12T03:59:44.130Z,80.55
2023-05-12T04:02:14.015Z,79.85
2023-05-12T04:04:42.253Z,79.59
2023-05-12T04:07:10.448Z,78.85
2023-05-12T04:09:38.600Z,78.57
2023-05-12T04:12:07.504Z,78.14
2023-05-12T04:14:42.848Z,78.07
2023-05-12T04:17:13.033Z,77.84
2023-05-12T04:19:41.213Z,77.50
2023-05-12T04:22:09.405Z,77.77
2023-05-12T04:24:38.402Z,77.71
2023-05-12T04:27:07.412Z,77.90
2023-05-12T04:29:37.024Z,77.18
2023-05-12T04:32:06.153Z,77.17
2023-05-12T04:34:36.814Z,77.33
2023-05-12T04:37:05.198Z,77.07
2023-05-12T04:39:33.406Z,76.40
2023-05-12T04:42:02.519Z,76.35
2023-05-12T04:44:33.731Z,76.88
2023-05-12T04:47:02.093Z,76.37
2023-05-12T04:49:32.028Z,76.17
2023-05-12T04:52:01.692Z,75.65
2023-05-12T04:54:29.872Z,75.57
2023-05-12T04:56:57.986Z,75.45
2023-05-12T04:59:26.316Z,74.82
2023-05-12T05:01:56.094Z,74.82
2023-05-12T05:04:24.533Z,74.64
2023-05-12T05:06:53.062Z,75.19
2023-05-12T05:09:22.767Z,75.60
2023-05-12T05:11:51.132Z,74.50
2023-05-12T05:14:19.555Z,74.66
2023-05-12T05:16:48.380Z,74.47
2023-05-12T05:19:23.334Z,73.37
2023-05-12T05:22:03.386Z,73.32
2023-05-12T05:24:33.164Z,72.88
2023-05-12T05:27:01.369Z,71.89
2023-05-12T05:29:30.345Z,71.73
2023-05-12T05:31:58.511Z,71.52
2023-05-12T05:34:26.762Z,71.40
2023-05-12T05:36:55.147Z,70.92
2023-05-12T05:39:23.567Z,69.32
2023-05-12T05:41:53.506Z,69.69
2023-05-12T05:44:21.661Z,69.93
2023-05-12T05:46:49.936Z,70.31
2023-05-12T05:49:18.446Z,69.82
2023-05-12T05:51:46.616Z,68.59
2023-05-12T05:54:15.179Z,69.10
2023-05-12T05:56:43.487Z,68.26
2023-05-12T05:59:14.314Z,68.52
2023-05-12T06:01:42.611Z,68.41
2023-05-12T06:04:11.252Z,67.22
2023-05-12T06:06:39.805Z,66.18
2023-05-12T06:09:09.616Z,65.78
2023-05-12T06:11:37.760Z,64.68
2023-05-12T06:14:06.068Z,65.44
2023-05-12T06:16:35.867Z,65.34
2023-05-12T06:19:04.329Z,64.87
2023-05-12T06:21:33.420Z,65.02
2023-05-12T06:24:01.589Z,63.61
2023-05-12T06:26:29.792Z,64.34
2023-05-12T06:28:58.011Z,63.16
2023-05-12T06:31:26.391Z,63.00
2023-05-12T06:33:55.963Z,64.25
2023-05-12T06:36:24.276Z,62.62
2023-05-12T06:38:54.200Z,62.46
2023-05-12T06:41:24.915Z,63.18
2023-05-12T06:43:53.352Z,62.49
2023-05-12T06:46:28.785Z,62.23
2023-05-12T06:48:58.383Z,62.15
2023-05-12T06:51:26.577Z,62.19
2023-05-12T06:53:56.015Z,60.74
2023-05-12T06:56:24.649Z,60.18
2023-05-12T06:58:54.337Z,59.98
2023-05-12T07:01:22.595Z,60.11
2023-05-12T07:03:50.893Z,59.89
2023-05-12T07:06:20.408Z,59.21
2023-05-12T07:08:48.857Z,59.32
2023-05-12T07:11:20.044Z,59.05
2023-05-12T07:13:48.781Z,59.72
2023-05-12T07:16:17.852Z,59.26
2023-05-12T07:18:46.655Z,59.66
2023-05-12T07:21:15.649Z,60.25
2023-05-12T07:23:45.565Z,60.34
2023-05-12T07:26:13.742Z,60.01
2023-05-12T07:28:41.949Z,60.70
2023-05-12T07:31:10.533Z,59.20
2023-05-12T07:33:38.814Z,59.35
2023-05-12T07:36:08.946Z,58.60
2023-05-12T07:38:37.186Z,57.99
2023-05-12T07:41:07.009Z,58.67
2023-05-12T07:43:35.219Z,58.48
2023-05-12T07:46:03.373Z,58.14
2023-05-12T07:48:31.574Z,57.20
2023-05-12T07:50:59.748Z,58.00
2023-05-12T07:53:27.936Z,58.07
2023-05-12T07:55:56.205Z,57.70
2023-05-12T07:58:26.105Z,57.32
2023-05-12T08:00:54.651Z,56.69
2023-05-12T08:03:22.976Z,56.48
2023-05-12T08:05:51.182Z,54.88
2023-05-12T08:08:19.364Z,55.27
2023-05-12T08:10:47.615Z,56.09
2023-05-12T08:13:15.932Z,55.41
2023-05-12T08:15:47.648Z,55.14
2023-05-12T08:18:15.817Z,54.57
2023-05-12T08:20:44.396Z,55.32
2023-05-12T08:23:12.591Z,52.02
2023-05-12T08:25:41.771Z,54.51
2023-05-12T08:28:09.970Z,53.08
2023-05-12T08:30:38.256Z,52.44
2023-05-12T08:33:07.992Z,51.82
2023-05-12T08:35:36.874Z,52.08
2023-05-12T08:38:05.155Z,50.89
2023-05-12T08:40:39.066Z,50.78
2023-05-12T08:43:11.002Z,51.88
2023-05-12T08:45:40.996Z,51.31
2023-05-12T08:48:11.796Z,48.51
2023-05-12T08:50:42.318Z,50.00
2023-05-12T08:53:12.134Z,48.72
2023-05-12T08:55:50.212Z,49.04
2023-05-12T08:58:37.858Z,48.33
2023-05-12T09:01:09.596Z,47.24
2023-05-12T09:03:39.317Z,47.33
2023-05-12T09:06:09.143Z,47.01
2023-05-12T09:08:37.790Z,45.45
2023-05-12T09:11:06.388Z,45.41
2023-05-12T09:13:40.961Z,44.59
2023-05-12T09:16:12.841Z,44.12
2023-05-12T09:18:51.432Z,44.21
2023-05-12T09:21:20.585Z,45.21
2023-05-12T09:23:56.865Z,44.65
2023-05-12T09:26:26.038Z,45.09
2023-05-12T09:28:55.978Z,44.70
2023-05-12T09:31:26.036Z,44.03
2023-05-12T09:33:56.605Z,44.55
2023-05-12T09:36:26.009Z,44.05
2023-05-12T09:39:04.413Z,43.93
2023-05-12T09:41:32.640Z,44.63
2023-05-12T09:44:01.404Z,44.25
2023-05-12T09:46:29.792Z,42.75
2023-05-12T09:49:00.179Z,41.80
2023-05-12T09:51:29.313Z,43.44
2023-05-12T09:53:57.696Z,41.75
2023-05-12T09:56:28.900Z,42.17
2023-05-12T09:58:58.241Z,43.00
2023-05-12T10:01:27.881Z,43.12
2023-05-12T10:03:57.317Z,41.00
2023-05-12T10:06:29.756Z,42.53
2023-05-12T10:09:07.148Z,41.26
2023-05-12T10:11:36.079Z,40.01
2023-05-12T10:14:04.801Z,41.46
2023-05-12T10:16:34.688Z,41.62
2023-05-12T10:19:04.483Z,41.24
2023-05-12T10:21:37.802Z,40.53
2023-05-12T10:24:06.296Z,40.90
2023-05-12T10:26:34.925Z,42.48
2023-05-12T10:29:03.308Z,42.29
2023-05-12T10:31:31.882Z,41.46
2023-05-12T10:34:01.278Z,41.06
2023-05-12T10:36:29.859Z,40.98
2023-05-12T10:39:06.182Z,41.13
2023-05-12T10:41:35.691Z,40.84
2023-05-12T10:44:04.482Z,40.45
2023-05-12T10:46:32.708Z,40.70
2023-05-12T10:49:04.279Z,41.17
2023-05-12T10:51:34.141Z,41.46
2023-05-12T10:54:05.753Z,41.42
2023-05-12T10:56:46.898Z,42.61
2023-05-12T10:59:18.372Z,40.89
2023-05-12T11:02:03.057Z,40.48
2023-05-12T11:04:44.776Z,41.05
2023-05-12T11:07:15.561Z,40.63
2023-05-12T11:12:18.733Z,40.40
2023-05-12T11:14:47.955Z,40.22
2023-05-12T11:17:16.862Z,40.08
2023-05-12T11:19:47.784Z,40.58
2023-05-12T11:22:19.848Z,38.40
2023-05-12T11:24:50.778Z,38.13
2023-05-12T11:27:20.276Z,38.36
2023-05-12T11:29:57.404Z,37.93
2023-05-12T11:32:25.676Z,38.28
2023-05-12T11:34:53.925Z,38.10
2023-05-12T11:37:22.946Z,38.30
2023-05-12T11:39:53.753Z,37.18
2023-05-12T11:42:23.693Z,37.46
2023-05-12T11:44:55.737Z,37.05
2023-05-12T11:47:23.888Z,38.29
2023-05-12T11:49:54.656Z,38.02
2023-05-12T11:52:25.373Z,38.14
2023-05-12T11:55:00.202Z,37.38
2023-05-12T11:57:29.573Z,38.06
2023-05-12T12:00:00.303Z,37.74
2023-05-12T12:02:29.221Z,37.45
2023-05-12T12:04:58.071Z,37.63
2023-05-12T12:07:30.264Z,38.75
2023-05-12T12:10:00.860Z,37.61
2023-05-12T12:12:29.136Z,37.17
2023-05-12T12:15:00.418Z,37.70
2023-05-12T12:17:31.213Z,37.65
2023-05-12T12:19:59.522Z,37.29
2023-05-12T12:22:27.956Z,37.02
2023-05-12T12:24:56.111Z,37.57
2023-05-12T12:27:25.603Z,37.11
2023-05-12T12:29:53.741Z,37.89
2023-05-12T12:32:21.975Z,37.41
2023-05-12T12:34:50.147Z,38.37
2023-05-12T12:37:18.539Z,38.50
2023-05-12T12:39:47.667Z,38.95
2023-05-12T12:42:16.555Z,37.84
2023-05-12T12:44:47.922Z,37.18
2023-05-12T12:47:16.391Z,38.31
2023-05-12T12:49:44.952Z,37.69
2023-05-12T12:52:13.114Z,37.50
2023-05-12T12:54:41.876Z,37.29
2023-05-12T12:57:10.841Z,36.74
2023-05-12T12:59:39.051Z,38.33
2023-05-12T13:02:09.145Z,38.67
2023-05-12T13:04:37.674Z,38.79
2023-05-12T13:07:06.485Z,37.03
2023-05-12T13:09:34.763Z,38.25
2023-05-12T13:12:03.121Z,37.23
2023-05-12T13:14:31.451Z,37.17
2023-05-12T13:16:59.725Z,37.99
2023-05-12T13:19:29.272Z,37.30
2023-05-12T13:21:57.419Z,38.75
2023-05-12T13:24:25.672Z,38.48
2023-05-12T13:26:53.880Z,38.45
2023-05-12T13:29:22.132Z,38.88
2023-05-12T13:31:50.320Z,38.00
2023-05-12T13:34:18.492Z,38.19
2023-05-12T13:36:48.527Z,39.11
2023-05-12T13:39:18.407Z,38.91
2023-05-12T13:41:47.715Z,38.57
2023-05-12T13:44:15.901Z,37.96
2023-05-12T13:46:44.107Z,38.18
2023-05-12T13:49:13.047Z,38.15
2023-05-12T13:51:41.294Z,37.50
2023-05-12T13:54:10.792Z,37.66
2023-05-12T13:56:39.435Z,38.00
2023-05-12T13:59:09.353Z,36.93
2023-05-12T14:01:37.605Z,37.05
2023-05-12T14:04:05.898Z,36.62
2023-05-12T14:06:34.086Z,37.08
2023-05-12T14:09:02.406Z,38.03
2023-05-12T14:11:32.940Z,38.97
2023-05-12T14:14:03.304Z,38.74
2023-05-12T14:16:31.614Z,37.79
2023-05-12T14:19:00.716Z,36.92
2023-05-12T14:21:29.226Z,36.91
2023-05-12T14:23:57.380Z,36.24
2023-05-12T14:26:26.498Z,36.75
2023-05-12T14:28:56.159Z,37.21
2023-05-12T14:31:24.484Z,35.90
2023-05-12T14:33:53.343Z,36.43
2023-05-12T14:36:21.642Z,36.03
2023-05-12T14:38:49.953Z,35.60
2023-05-12T14:41:18.140Z,36.17
2023-05-12T14:43:46.607Z,37.19
2023-05-12T14:46:16.296Z,36.93
2023-05-12T14:48:44.714Z,35.81
2023-05-12T14:51:13.106Z,35.27
2023-05-12T14:53:41.486Z,35.16
2023-05-12T14:56:09.700Z,34.48
2023-05-12T14:58:37.905Z,35.17
2023-05-12T15:01:08.725Z,34.19
2023-05-12T15:03:39.029Z,34.79
2023-05-12T15:06:08.348Z,34.65
2023-05-12T15:08:36.778Z,33.47
2023-05-12T15:11:05.288Z,32.99
2023-05-12T15:13:33.632Z,33.10
2023-05-12T15:16:02.977Z,33.22
2023-05-12T15:18:31.545Z,32.57
2023-05-12T15:21:01.132Z,32.32
2023-05-12T15:23:29.300Z,31.37
2023-05-12T15:25:58.195Z,31.44
2023-05-12T15:28:27.699Z,32.24
2023-05-12T15:30:56.988Z,32.82
2023-05-12T15:33:25.987Z,32.41
2023-05-12T15:35:54.172Z,32.18
2023-05-12T15:38:23.678Z,32.26
2023-05-12T15:40:51.889Z,32.46
2023-05-12T15:43:20.061Z,33.42
2023-05-12T15:45:48.298Z,32.20
2023-05-12T15:48:16.859Z,32.74
2023-05-12T15:50:45.082Z,32.40
2023-05-12T15:53:13.700Z,32.48
2023-05-12T15:55:43.413Z,32.15
2023-05-12T15:58:11.804Z,32.85
2023-05-12T16:00:40.320Z,32.28
2023-05-12T16:03:09.221Z,32.92
2023-05-12T16:05:38.500Z,32.20
2023-05-12T16:08:06.952Z,32.66
2023-05-12T16:10:35.198Z,32.18
2023-05-12T16:13:04.836Z,32.62
2023-05-12T16:15:33.026Z,32.37
2023-05-12T16:18:01.244Z,32.47
2023-05-12T16:20:29.958Z,32.54
2023-05-12T16:22:58.241Z,31.85
2023-05-12T16:25:26.778Z,32.39
2023-05-12T16:27:54.935Z,33.24
2023-05-12T16:30:24.835Z,33.94
2023-05-12T16:32:53.018Z,34.08
2023-05-12T16:35:21.434Z,35.20
2023-05-12T16:37:49.718Z,35.16
2023-05-12T16:40:19.039Z,34.88
2023-05-12T16:42:47.207Z,35.83
2023-05-12T16:45:15.488Z,36.60
2023-05-12T16:47:45.055Z,36.70
2023-05-12T16:50:13.312Z,37.43
2023-05-12T16:52:41.507Z,37.12
2023-05-12T16:55:10.758Z,37.24
2023-05-12T16:57:41.355Z,38.18
2023-05-12T17:00:11.891Z,38.16
2023-05-12T17:02:40.333Z,37.88
2023-05-12T17:05:10.397Z,38.15
2023-05-12T17:07:38.575Z,38.23
2023-05-12T17:10:07.483Z,38.51
2023-05-12T17:12:36.746Z,38.50
2023-05-12T17:15:08.517Z,38.85
2023-05-12T17:17:37.031Z,38.77
2023-05-12T17:20:06.335Z,39.31
2023-05-12T17:22:41.279Z,39.39
2023-05-12T17:25:09.835Z,38.99
2023-05-12T17:27:38.050Z,38.93
2023-05-12T17:30:08.132Z,39.37
2023-05-12T17:32:36.551Z,39.45
2023-05-12T17:35:04.993Z,39.65
2023-05-12T17:37:33.732Z,39.78
2023-05-12T17:40:05.048Z,40.26
2023-05-12T17:42:33.289Z,40.59
2023-05-12T17:45:01.968Z,40.98
2023-05-12T17:47:30.272Z,41.28
2023-05-12T17:49:58.697Z,41.38
2023-05-12T17:52:27.419Z,41.62
2023-05-12T17:54:57.108Z,42.16
2023-05-12T17:57:27.121Z,43.19
2023-05-12T17:59:55.426Z,43.36
2023-05-12T18:02:23.746Z,42.98
2023-05-12T18:04:51.934Z,43.23
2023-05-12T18:07:20.171Z,42.90
2023-05-12T18:09:48.365Z,42.97
2023-05-12T18:12:17.988Z,43.29
2023-05-12T18:14:47.595Z,43.12
2023-05-12T18:17:16.721Z,43.41
2023-05-12T18:19:45.038Z,43.98
2023-05-12T18:22:14.539Z,44.20
2023-05-12T18:24:43.204Z,44.15
2023-05-12T18:27:11.513Z,44.42
2023-05-12T18:29:39.824Z,44.28
2023-05-12T18:32:09.760Z,44.64
2023-05-12T18:34:37.915Z,45.07
2023-05-12T18:37:06.116Z,45.28
2023-05-12T18:39:34.240Z,45.09
2023-05-12T18:42:02.406Z,45.57
2023-05-12T18:44:30.606Z,46.00
2023-05-12T18:46:58.823Z,45.67
2023-05-12T18:49:28.387Z,46.38
2023-05-12T18:51:56.497Z,46.49
2023-05-12T18:54:24.599Z,46.66
2023-05-12T18:56:52.720Z,47.15
2023-05-12T18:59:21.206Z,47.28
2023-05-12T19:01:49.414Z,47.36
2023-05-12T19:04:19.472Z,47.84
2023-05-12T19:06:49.890Z,47.97
2023-05-12T19:09:18.113Z,48.31
2023-05-12T19:11:46.843Z,48.46
2023-05-12T19:14:15.957Z,48.77
2023-05-12T19:16:46.472Z,48.95
2023-05-12T19:19:14.796Z,48.98
2023-05-12T19:21:43.037Z,49.53
2023-05-12T19:24:12.639Z,49.68
2023-05-12T19:26:41.057Z,49.94
2023-05-12T19:29:09.242Z,49.96
2023-05-12T19:31:37.457Z,50.26
2023-05-12T19:34:05.709Z,50.88
2023-05-12T19:36:33.969Z,51.37
2023-05-12T19:39:02.129Z,51.19
2023-05-12T19:41:31.873Z,51.83
2023-05-12T19:44:00.097Z,52.11
2023-05-12T19:46:28.461Z,52.40
2023-05-12T19:48:56.653Z,52.00
2023-05-12T19:51:24.892Z,52.40
2023-05-12T19:53:53.055Z,53.34
2023-05-12T19:56:21.306Z,53.26
2023-05-12T19:58:52.262Z,53.49
2023-05-12T20:01:20.761Z,53.39
2023-05-12T20:03:49.145Z,53.41
2023-05-12T20:06:17.738Z,53.78
2023-05-12T20:08:45.871Z,53.55
2023-05-12T20:11:14.106Z,54.15
2023-05-12T20:13:42.279Z,54.21
2023-05-12T20:16:11.999Z,54.33
2023-05-12T20:18:40.314Z,54.73
2023-05-12T20:21:08.484Z,54.83
2023-05-12T20:23:36.907Z,55.12
2023-05-12T20:26:05.398Z,55.22
2023-05-12T20:28:33.630Z,55.45
2023-05-12T20:31:01.972Z,55.66
2023-05-12T20:33:32.277Z,56.21
2023-05-12T20:36:00.598Z,56.46
2023-05-12T20:38:28.774Z,56.44
2023-05-12T20:40:56.906Z,56.62
2023-05-12T20:43:25.032Z,56.25
2023-05-12T20:45:53.345Z,56.41
2023-05-12T20:48:21.708Z,56.51
2023-05-12T20:50:52.227Z,55.82
2023-05-12T20:53:20.606Z,55.70
2023-05-12T20:55:48.925Z,55.78
2023-05-12T20:58:17.149Z,55.66
2023-05-12T21:00:45.473Z,56.40
2023-05-12T21:03:17.253Z,57.12
2023-05-12T21:05:47.720Z,57.09
2023-05-12T21:08:17.284Z,57.57
2023-05-12T21:10:45.451Z,57.83
2023-05-12T21:13:13.598Z,57.70
2023-05-12T21:15:41.867Z,58.21
2023-05-12T21:18:10.079Z,58.58
2023-05-12T21:20:38.333Z,58.75
2023-05-12T21:23:09.291Z,59.12
2023-05-12T21:25:38.920Z,59.53
2023-05-12T21:28:07.933Z,59.50
2023-05-12T21:30:37.270Z,59.57
2023-05-12T21:33:05.939Z,59.74
2023-05-12T21:35:34.202Z,59.55
2023-05-12T21:38:02.628Z,59.55
2023-05-12T21:40:30.863Z,60.05
2023-05-12T21:43:00.517Z,60.20
2023-05-12T21:45:28.677Z,60.24
2023-05-12T21:47:56.859Z,60.44
2023-05-12T21:50:25.100Z,60.52
2023-05-12T21:52:53.281Z,60.45
2023-05-12T21:55:21.689Z,60.47
2023-05-12T21:57:49.826Z,60.88
2023-05-12T22:00:21.481Z,60.68
2023-05-12T22:02:50.360Z,61.50
2023-05-12T22:05:18.976Z,61.23
2023-05-12T22:07:47.845Z,60.96
2023-05-12T22:10:16.112Z,61.13
2023-05-12T22:12:45.679Z,61.50
2023-05-12T22:15:14.168Z,60.94
2023-05-12T22:17:45.460Z,61.15
2023-05-12T22:20:14.479Z,61.18
2023-05-12T22:22:42.637Z,61.15
2023-05-12T22:25:11.153Z,61.22
2023-05-12T22:27:39.308Z,61.25
2023-05-12T22:30:10.082Z,61.41
2023-05-12T22:32:38.729Z,61.57
2023-05-12T22:35:09.913Z,61.84
2023-05-12T22:37:38.097Z,61.92
2023-05-12T22:40:07.897Z,61.71
2023-05-12T22:42:36.141Z,62.60
2023-05-12T22:45:05.056Z,62.31
2023-05-12T22:47:33.432Z,62.99
2023-05-12T22:50:01.854Z,63.74
2023-05-12T22:52:31.378Z,63.41
2023-05-12T22:54:59.668Z,63.06
2023-05-12T22:57:27.925Z,63.00
2023-05-12T22:59:56.270Z,63.50
2023-05-12T23:02:24.477Z,64.12
2023-05-12T23:04:52.669Z,65.12
2023-05-12T23:07:21.039Z,64.34
2023-05-12T23:09:50.558Z,64.65
2023-05-12T23:12:18.722Z,64.34
2023-05-12T23:14:46.848Z,63.06
2023-05-12T23:17:15.180Z,63.91
2023-05-12T23:19:43.369Z,64.00
2023-05-12T23:22:11.570Z,65.26
2023-05-12T23:24:40.604Z,66.61
2023-05-12T23:27:10.083Z,66.15
2023-05-12T23:29:38.265Z,66.33
2023-05-12T23:32:07.106Z,66.06
2023-05-12T23:34:36.349Z,67.60
2023-05-12T23:37:04.473Z,66.95
2023-05-12T23:39:32.645Z,66.68
2023-05-12T23:42:01.713Z,67.44
2023-05-12T23:44:31.222Z,67.00
2023-05-12T23:46:59.419Z,67.21
2023-05-12T23:49:27.557Z,66.44
2023-05-12T23:51:56.112Z,67.21
2023-05-12T23:54:24.374Z,67.09
2023-05-12T23:56:52.529Z,66.80
2023-05-12T23:59:20.658Z,66.91
